Terminal Aerodrome Forecast
Issued by NWS

Home | Current Version | Previous Version | Text Only | Print | Product List | Glossary On
Versions: 1 2 3 4 5 6 7 8 9 10 11 12 13 14 15 16 17 18 19 20
000
FTUS45 KSLC 061739
TAFEVW
TAF
KEVW 061739Z 0618/0718 03010KT P6SM FEW002 SCT090 BKN180
     FM062000 10015G22KT P6SM VCSH SCT050 BKN100
     FM070500 08010KT P6SM BKN070 BKN100=

USA.gov is the U.S. government's official web portal to all federal, state and local government web resources and services.